»·PEaware :: N235MB KSJC-KRIF

N235MB :: KSJC-KRIF

FLIGHT INFORMATION

Flight Status: Arrived
Operator: Privately registered:
United States
More flights under this callsign
Pilot: Eric W. (14379)
Aircraft: SOCATA TBM-900
(TBM9)
More flights by this aircraft type
Origin: KSJC Mineta San Jose Intl
United States
Destination: KRIF Richfield Mun
United States
More flights between these airports :: More routes between these airports
Route: +ALMDN4 ROANA OXJEF T259 NIKOL V244 DETAN
File this flight plan on PilotEdge
Remarks:
Altitude:
(Current/Filed)
31,000ft
Speed:
(Current/Filed)
250kts
Departed: 22-Dec-19 11:01 AM
Arrived: 22-Dec-19 12:49 PM
Distance/Time
Traveled:
471nm/1:47
Distance/Time
To Go:
Arrived

Flight Plot

Page will automatically refresh every two minutes.

Flight plan parsing failed; only flown route is shown


Map Options




Map Legend


Flown Route
Filed Route
Departure Airport
Arrival Airport
Navaid (VOR, NDB)
Fix

Horizontal Profiles

Position Reports

Time Latitude Longitude Heading Altitude Ground
Speed
22-Dec-19 10:37 37.362607 -121.935905 52 47ft 0kts
22-Dec-19 10:38 37.362607 -121.935905 52 47ft 0kts
22-Dec-19 10:39 37.362607 -121.935905 52 47ft 0kts
22-Dec-19 10:40 37.362607 -121.935905 52 47ft 0kts
22-Dec-19 10:41 37.362607 -121.935905 52 47ft 0kts
22-Dec-19 10:42 37.362607 -121.935905 52 47ft 0kts
22-Dec-19 10:43 37.362607 -121.935905 52 47ft 0kts
22-Dec-19 10:44 37.362607 -121.935905 52 47ft 0kts
22-Dec-19 10:45 37.362607 -121.935905 52 47ft 0kts
22-Dec-19 10:46 37.362607 -121.935905 52 47ft 0kts
22-Dec-19 10:48 37.362893 -121.935641 348 47ft 4kts
22-Dec-19 10:49 37.365009 -121.936874 318 43ft 11kts
22-Dec-19 10:50 37.367917 -121.940101 321 40ft 16kts
22-Dec-19 10:51 37.368279 -121.940389 332 40ft 0kts
22-Dec-19 10:52 37.368592 -121.940556 342 40ft 6kts
22-Dec-19 10:53 37.371369 -121.941371 319 39ft 14kts
22-Dec-19 10:54 37.371624 -121.941643 317 39ft 0kts
22-Dec-19 10:55 37.371624 -121.941643 317 39ft 0kts
22-Dec-19 10:56 37.371624 -121.941643 317 39ft 0kts
22-Dec-19 10:57 37.371624 -121.941643 317 39ft 0kts
22-Dec-19 10:58 37.371624 -121.941643 317 39ft 0kts
22-Dec-19 10:59 37.372181 -121.941776 35 39ft 0kts
22-Dec-19 11:00 37.372644 -121.940778 137 39ft 0kts
22-Dec-19 11:01 37.356840 -121.923238 138 917ft 122kts
22-Dec-19 11:02 37.326332 -121.890678 139 2588ft 162kts
22-Dec-19 11:03 37.290797 -121.849984 139 4111ft 186kts
22-Dec-19 11:04 37.281650 -121.796705 28 5591ft 209kts
22-Dec-19 11:05 37.333988 -121.766436 26 7271ft 208kts
22-Dec-19 11:06 37.388411 -121.756633 357 9199ft 206kts
22-Dec-19 11:07 37.447203 -121.755785 357 11200ft 219kts
22-Dec-19 11:08 37.508592 -121.747869 3 13195ft 230kts
22-Dec-19 11:09 37.572637 -121.738172 2 15190ft 236kts
22-Dec-19 11:09 37.626921 -121.728223 26 16826ft 243kts
22-Dec-19 11:10 37.650234 -121.655692 88 18879ft 232kts
22-Dec-19 11:12 37.668543 -121.560874 88 21266ft 246kts
22-Dec-19 11:12 37.682195 -121.490740 88 22950ft 250kts
22-Dec-19 11:13 37.698821 -121.404848 89 24989ft 257kts
22-Dec-19 11:14 37.714190 -121.325264 90 26820ft 263kts
22-Dec-19 11:15 37.732882 -121.227955 90 28976ft 270kts
22-Dec-19 11:16 37.750513 -121.135722 91 30873ft 276kts
22-Dec-19 11:17 37.769838 -121.030518 94 30903ft 329kts
22-Dec-19 11:18 37.781284 -120.911736 95 30897ft 350kts
22-Dec-19 11:19 37.792745 -120.788259 94 30894ft 358kts
22-Dec-19 11:20 37.804216 -120.663120 95 30940ft 358kts
22-Dec-19 11:21 37.815519 -120.538085 95 30949ft 359kts
22-Dec-19 11:22 37.826790 -120.411970 95 30950ft 360kts
22-Dec-19 11:23 37.837784 -120.287492 95 30944ft 360kts
22-Dec-19 11:24 37.848728 -120.161960 96 30945ft 360kts
22-Dec-19 11:25 37.859577 -120.035839 96 30947ft 360kts
22-Dec-19 11:26 37.870269 -119.909756 96 30948ft 360kts
22-Dec-19 11:27 37.880823 -119.783709 96 30942ft 361kts
22-Dec-19 11:28 37.892989 -119.656510 86 30891ft 374kts
22-Dec-19 11:29 37.921681 -119.528952 84 30898ft 375kts
22-Dec-19 11:30 37.950204 -119.401851 84 30899ft 376kts
22-Dec-19 11:31 37.978771 -119.273862 85 30893ft 375kts
22-Dec-19 11:32 37.984017 -119.149205 106 30920ft 349kts
22-Dec-19 11:33 37.979747 -119.026030 105 30922ft 350kts
22-Dec-19 11:34 37.975453 -118.902727 105 30923ft 350kts
22-Dec-19 11:35 37.971014 -118.778986 105 30924ft 351kts
22-Dec-19 11:36 37.968677 -118.654053 99 30955ft 361kts
22-Dec-19 11:37 37.974059 -118.526719 99 30954ft 362kts
22-Dec-19 11:38 37.979362 -118.398284 99 30955ft 363kts
22-Dec-19 11:39 37.984464 -118.271505 100 30947ft 363kts
22-Dec-19 11:40 37.989464 -118.143519 100 30922ft 363kts
22-Dec-19 11:41 37.994343 -118.015327 100 30922ft 363kts
22-Dec-19 11:42 37.999047 -117.887758 100 31032ft 362kts
22-Dec-19 11:43 38.003706 -117.759451 99 31034ft 364kts
22-Dec-19 11:44 38.008826 -117.630474 99 31035ft 365kts
22-Dec-19 11:45 38.013838 -117.500635 99 31036ft 366kts
22-Dec-19 11:46 38.018773 -117.368852 99 31037ft 366kts
22-Dec-19 11:47 38.023280 -117.244947 100 31028ft 365kts
22-Dec-19 11:48 38.027818 -117.115925 100 31030ft 365kts
22-Dec-19 11:49 38.034995 -116.986492 94 31032ft 372kts
22-Dec-19 11:50 38.047332 -116.855711 94 31033ft 372kts
22-Dec-19 11:51 38.059466 -116.724554 94 31034ft 372kts
22-Dec-19 11:52 38.071590 -116.591871 94 31036ft 373kts
22-Dec-19 11:53 38.083417 -116.460788 94 31037ft 373kts
22-Dec-19 11:54 38.095167 -116.328957 95 31031ft 374kts
22-Dec-19 11:55 38.106638 -116.198527 95 31011ft 371kts
22-Dec-19 11:56 38.117938 -116.068319 95 31013ft 369kts
22-Dec-19 11:57 38.129052 -115.938603 95 31015ft 369kts
22-Dec-19 11:58 38.140040 -115.808654 95 31016ft 369kts
22-Dec-19 11:59 38.150906 -115.678413 95 31018ft 370kts
22-Dec-19 12:00 38.161611 -115.548394 95 31046ft 369kts
22-Dec-19 12:01 38.172213 -115.417766 94 31021ft 371kts
22-Dec-19 12:02 38.182619 -115.287802 95 31012ft 370kts
22-Dec-19 12:03 38.192921 -115.157224 95 31014ft 369kts
22-Dec-19 12:04 38.203034 -115.027202 95 31015ft 369kts
22-Dec-19 12:05 38.213041 -114.896655 95 31017ft 370kts
22-Dec-19 12:06 38.222889 -114.766290 95 31018ft 370kts
22-Dec-19 12:07 38.232622 -114.635496 95 31020ft 371kts
22-Dec-19 12:08 38.242235 -114.504321 95 31021ft 371kts
22-Dec-19 12:09 38.251973 -114.373382 93 31037ft 372kts
22-Dec-19 12:10 38.263078 -114.242776 94 31041ft 371kts
22-Dec-19 12:11 38.274052 -114.111923 94 31043ft 371kts
22-Dec-19 12:12 38.284862 -113.981278 94 31045ft 371kts
22-Dec-19 12:13 38.295562 -113.850153 93 31046ft 372kts
22-Dec-19 12:14 38.306133 -113.718791 93 31048ft 372kts
22-Dec-19 12:15 38.316551 -113.587462 93 31049ft 372kts
22-Dec-19 12:16 38.326816 -113.456193 93 31051ft 373kts
22-Dec-19 12:17 38.336909 -113.325298 94 31043ft 373kts
22-Dec-19 12:18 38.346691 -113.194070 94 31043ft 371kts
22-Dec-19 12:19 38.356103 -113.062682 94 31045ft 371kts
22-Dec-19 12:20 38.365339 -112.931828 94 31047ft 371kts
22-Dec-19 12:21 38.374473 -112.800337 93 31048ft 372kts
22-Dec-19 12:22 38.383458 -112.668837 93 31049ft 372kts
22-Dec-19 12:23 38.398487 -112.537266 73 31049ft 388kts
22-Dec-19 12:24 38.467831 -112.429961 43 31054ft 397kts
22-Dec-19 12:25 38.547187 -112.332492 44 31046ft 397kts
22-Dec-19 12:26 38.621980 -112.240330 45 28887ft 352kts
22-Dec-19 12:27 38.689447 -112.156940 45 26361ft 326kts
22-Dec-19 12:28 38.753560 -112.079270 41 23858ft 311kts
22-Dec-19 12:29 38.819456 -112.010518 40 21378ft 301kts
22-Dec-19 12:30 38.883222 -111.943873 41 18905ft 291kts
22-Dec-19 12:31 38.944869 -111.879284 41 16440ft 282kts
22-Dec-19 12:32 39.004370 -111.816812 41 14135ft 266kts
22-Dec-19 12:33 39.059556 -111.759411 39 14137ft 281kts
22-Dec-19 12:34 39.124387 -111.694479 38 14111ft 304kts
22-Dec-19 12:35 39.192480 -111.681980 302 14101ft 271kts
22-Dec-19 12:36 39.167405 -111.739218 196 14117ft 224kts
22-Dec-19 12:37 39.106934 -111.758681 195 14108ft 224kts
22-Dec-19 12:38 39.042315 -111.773964 185 13195ft 245kts
22-Dec-19 12:39 38.988264 -111.822001 217 12777ft 233kts
22-Dec-19 12:40 38.947872 -111.874032 226 11756ft 172kts
22-Dec-19 12:41 38.916835 -111.911702 216 10304ft 144kts
22-Dec-19 12:42 38.886442 -111.944381 217 9109ft 153kts
22-Dec-19 12:43 38.852846 -111.980666 219 8154ft 154kts
22-Dec-19 12:44 38.825823 -112.009847 221 7449ft 119kts
22-Dec-19 12:45 38.800333 -112.037301 222 6759ft 122kts
22-Dec-19 12:46 38.776705 -112.062912 222 6136ft 97kts
22-Dec-19 12:47 38.755825 -112.086990 215 5569ft 98kts
22-Dec-19 12:48 38.737575 -112.098281 205 5282ft 6kts
22-Dec-19 12:49 38.735245 -112.098010 206 5283ft 13kts
22-Dec-19 12:50 38.731588 -112.099438 114 5288ft 11kts
22-Dec-19 12:51 38.729378 -112.099803 203 5292ft 8kts
22-Dec-19 12:52 38.728515 -112.100122 27 5294ft 0kts
22-Dec-19 12:53 38.728533 -112.100110 27 5294ft 0kts
22-Dec-19 12:54 38.728532 -112.100110 27 5294ft 0kts

Navigation Log

Ident Type
Flight plan parsing failed, navigation log unavailable